createdAt,value
2023-03-08T00:02:42.438Z,98845.75
2023-03-08T00:05:44.303Z,98855.59
2023-03-08T00:08:48.309Z,98859.13
2023-03-08T00:11:49.826Z,98861.19
2023-03-08T00:14:51.698Z,98866.78
2023-03-08T00:17:53.195Z,98867.66
2023-03-08T00:21:12.715Z,98868.28
2023-03-08T00:24:16.616Z,98864.31
2023-03-08T00:27:18.081Z,98874.31
2023-03-08T00:30:19.797Z,98861.78
2023-03-08T00:33:22.165Z,98862.00
2023-03-08T00:36:23.711Z,98855.53
2023-03-08T00:39:25.214Z,98867.19
2023-03-08T00:42:26.843Z,98860.28
2023-03-08T00:45:28.347Z,98869.47
2023-03-08T00:48:29.895Z,98873.19
2023-03-08T00:51:31.389Z,98881.34
2023-03-08T00:54:33.172Z,98874.25
2023-03-08T00:57:34.714Z,98880.50
2023-03-08T01:00:36.231Z,98876.97
2023-03-08T01:03:37.768Z,98882.19
2023-03-08T01:06:40.086Z,98883.22
2023-03-08T01:09:44.948Z,98870.72
2023-03-08T01:12:48.552Z,98873.19
2023-03-08T01:15:50.201Z,98873.19
2023-03-08T01:18:52.633Z,98870.31
2023-03-08T01:21:54.741Z,98857.81
2023-03-08T01:24:56.315Z,98865.06
2023-03-08T01:27:57.830Z,98865.53
2023-03-08T01:31:03.190Z,98856.94
2023-03-08T01:34:04.681Z,98856.31
2023-03-08T01:37:06.584Z,98851.91
2023-03-08T01:40:10.027Z,98849.41
2023-03-08T01:43:29.365Z,98836.69
2023-03-08T01:46:35.669Z,98842.53
2023-03-08T01:49:43.199Z,98844.38
2023-03-08T01:52:48.518Z,98837.09
2023-03-08T01:55:50.053Z,98845.41
2023-03-08T01:58:52.548Z,98838.94
2023-03-08T02:01:54.026Z,98832.69
2023-03-08T02:04:56.551Z,98829.97
2023-03-08T02:07:59.260Z,98830.19
2023-03-08T02:11:05.563Z,98832.69
2023-03-08T02:14:08.485Z,98830.81
2023-03-08T02:17:12.013Z,98830.81
2023-03-08T02:20:32.849Z,98827.09
2023-03-08T02:23:40.721Z,98820.19
2023-03-08T02:26:42.298Z,98821.41
2023-03-08T02:29:44.322Z,98822.44
2023-03-08T02:32:45.938Z,98819.94
2023-03-08T02:35:47.615Z,98814.72
2023-03-08T02:38:49.144Z,98821.81
2023-03-08T02:41:50.653Z,98819.13
2023-03-08T02:44:52.162Z,98817.41
2023-03-08T02:47:53.661Z,98821.81
2023-03-08T02:50:55.292Z,98812.00
2023-03-08T02:53:56.817Z,98808.28
2023-03-08T02:56:58.447Z,98810.97
2023-03-08T03:00:00.046Z,98813.03
2023-03-08T03:03:02.975Z,98812.81
2023-03-08T03:06:04.848Z,98809.28
2023-03-08T03:09:10.093Z,98812.81
2023-03-08T03:12:12.257Z,98810.50
2023-03-08T03:15:15.782Z,98812.41
2023-03-08T03:18:19.625Z,98810.72
2023-03-08T03:21:21.857Z,98802.59
2023-03-08T03:24:23.376Z,98810.91
2023-03-08T03:27:28.609Z,98808.22
2023-03-08T03:30:31.225Z,98808.22
2023-03-08T03:33:35.103Z,98812.59
2023-03-08T03:36:37.205Z,98803.63
2023-03-08T03:39:39.855Z,98809.03
2023-03-08T03:42:44.252Z,98809.88
2023-03-08T03:45:56.018Z,98803.44
2023-03-08T03:48:58.624Z,98800.72
2023-03-08T03:52:05.744Z,98799.03
2023-03-08T03:55:14.362Z,98798.19
2023-03-08T03:58:17.082Z,98800.91
2023-03-08T04:01:28.902Z,98794.66
2023-03-08T04:04:37.056Z,98802.34
2023-03-08T04:07:39.707Z,98804.19
2023-03-08T04:10:42.556Z,98802.34
2023-03-08T04:13:44.563Z,98809.63
2023-03-08T04:16:46.408Z,98814.03
2023-03-08T04:19:57.256Z,98814.03
2023-03-08T04:22:59.060Z,98814.66
2023-03-08T04:26:09.834Z,98809.88
2023-03-08T04:29:12.436Z,98820.72
2023-03-08T04:32:14.962Z,98813.03
2023-03-08T04:35:24.486Z,98817.41
2023-03-08T04:38:28.479Z,98816.41
2023-03-08T04:41:32.362Z,98810.75
2023-03-08T04:44:57.044Z,98798.91
2023-03-08T04:47:59.229Z,98799.53
2023-03-08T04:51:03.658Z,98798.69
2023-03-08T04:54:05.313Z,98804.75
2023-03-08T04:57:10.299Z,98800.16
2023-03-08T05:00:13.744Z,98802.88
2023-03-08T05:03:17.594Z,98797.47
2023-03-08T05:06:21.067Z,98794.75
2023-03-08T05:09:23.486Z,98791.22
2023-03-08T05:12:26.515Z,98785.78
2023-03-08T05:15:32.243Z,98787.66
2023-03-08T05:18:34.175Z,98787.66
2023-03-08T05:21:35.783Z,98784.31
2023-03-08T05:24:40.999Z,98782.44
2023-03-08T05:27:45.034Z,98776.19
2023-03-08T05:30:47.848Z,98770.13
2023-03-08T05:33:52.312Z,98755.72
2023-03-08T05:37:01.570Z,98748.84
2023-03-08T05:40:06.350Z,98751.72
2023-03-08T05:43:10.906Z,98750.91
2023-03-08T05:46:18.631Z,98757.16
2023-03-08T05:49:20.718Z,98761.31
2023-03-08T05:52:22.315Z,98756.91
2023-03-08T05:55:24.640Z,98762.53
2023-03-08T05:58:26.227Z,98754.59
2023-03-08T06:01:28.424Z,98750.00
2023-03-08T06:04:36.461Z,98756.28
2023-03-08T06:07:38.198Z,98764.41
2023-03-08T06:10:44.489Z,98771.31
2023-03-08T06:13:46.098Z,98768.59
2023-03-08T06:16:48.813Z,98769.22
2023-03-08T06:19:51.886Z,98765.50
2023-03-08T06:22:53.892Z,98766.13
2023-03-08T06:25:56.095Z,98765.09
2023-03-08T06:28:57.787Z,98764.03
2023-03-08T06:32:03.225Z,98760.31
2023-03-08T06:35:07.137Z,98756.56
2023-03-08T06:38:12.076Z,98759.28
2023-03-08T06:41:16.245Z,98747.41
2023-03-08T06:44:19.425Z,98759.28
2023-03-08T06:47:21.068Z,98745.72
2023-03-08T06:50:22.825Z,98750.13
2023-03-08T06:53:25.233Z,98742.00
2023-03-08T06:56:31.064Z,98736.56
2023-03-08T06:59:32.656Z,98742.00
2023-03-08T07:02:34.131Z,98743.66
2023-03-08T07:05:35.639Z,98734.88
2023-03-08T07:08:37.941Z,98742.00
2023-03-08T07:11:39.959Z,98736.75
2023-03-08T07:14:41.425Z,98734.06
2023-03-08T07:17:43.412Z,98734.06
2023-03-08T07:20:45.462Z,98723.41
2023-03-08T07:23:46.944Z,98722.78
2023-03-08T07:26:48.405Z,98721.31
2023-03-08T07:29:50.469Z,98722.13
2023-03-08T07:32:55.423Z,98710.47
2023-03-08T07:36:01.487Z,98714.19
2023-03-08T07:39:03.153Z,98709.19
2023-03-08T07:42:05.051Z,98704.59
2023-03-08T07:45:07.431Z,98715.44
2023-03-08T07:48:09.032Z,98709.19
2023-03-08T07:51:13.244Z,98704.59
2023-03-08T07:54:17.326Z,98711.47
2023-03-08T07:57:18.862Z,98705.22
2023-03-08T08:00:20.788Z,98714.19
2023-03-08T08:03:22.325Z,98713.38
2023-03-08T08:06:23.952Z,98710.00
2023-03-08T08:09:25.498Z,98700.84
2023-03-08T08:12:27.044Z,98702.72
2023-03-08T08:15:30.794Z,98695.63
2023-03-08T08:18:32.460Z,98698.53
2023-03-08T08:21:33.914Z,98695.97
2023-03-08T08:24:35.743Z,98704.56
2023-03-08T08:27:37.302Z,98700.81
2023-03-08T08:30:38.783Z,98699.19
2023-03-08T08:33:40.342Z,98695.81
2023-03-08T08:36:41.889Z,98691.03
2023-03-08T08:39:43.367Z,98687.59
2023-03-08T08:42:44.857Z,98693.06
2023-03-08T08:45:48.954Z,98691.88
2023-03-08T08:48:50.519Z,98684.59
2023-03-08T08:51:53.276Z,98691.44
2023-03-08T08:54:54.952Z,98680.41
2023-03-08T08:57:56.484Z,98684.97
2023-03-08T09:00:57.953Z,98685.72
2023-03-08T09:04:00.333Z,98675.22
2023-03-08T09:07:01.846Z,98670.25
2023-03-08T09:10:03.457Z,98669.34
2023-03-08T09:13:06.120Z,98661.41
2023-03-08T09:16:19.834Z,98654.44
2023-03-08T09:19:21.438Z,98655.19
2023-03-08T09:22:22.997Z,98655.22
2023-03-08T09:25:24.640Z,98655.13
2023-03-08T09:28:26.167Z,98648.91
2023-03-08T09:31:27.797Z,98640.41
2023-03-08T09:34:29.413Z,98641.28
2023-03-08T09:37:31.482Z,98641.53
2023-03-08T09:40:46.328Z,98621.22
2023-03-08T09:44:16.220Z,98624.16
2023-03-08T09:47:22.570Z,98616.47
2023-03-08T09:50:39.304Z,98613.38
2023-03-08T09:53:40.784Z,98604.25
2023-03-08T09:56:51.326Z,98591.13
2023-03-08T09:59:57.198Z,98588.00
2023-03-08T10:03:37.227Z,98584.53
2023-03-08T10:06:53.294Z,98583.09
2023-03-08T10:10:05.667Z,98591.25
2023-03-08T10:13:32.870Z,98571.69
2023-03-08T10:16:43.623Z,98567.75
2023-03-08T10:19:57.548Z,98561.94
2023-03-08T10:23:12.464Z,98554.44
2023-03-08T10:26:15.410Z,98549.66
2023-03-08T10:29:16.890Z,98551.13
2023-03-08T10:32:18.699Z,98543.00
2023-03-08T10:35:32.288Z,98545.31
2023-03-08T10:38:36.303Z,98543.44
2023-03-08T10:41:43.708Z,98538.44
2023-03-08T10:44:53.991Z,98534.72
2023-03-08T10:48:02.364Z,98522.63
2023-03-08T10:51:07.105Z,98527.81
2023-03-08T10:54:15.124Z,98514.91
2023-03-08T10:57:20.015Z,98515.97
2023-03-08T11:00:42.843Z,98522.63
2023-03-08T11:03:44.576Z,98525.34
2023-03-08T11:06:46.292Z,98520.78
2023-03-08T11:09:49.312Z,98523.06
2023-03-08T11:13:01.669Z,98523.72
2023-03-08T11:16:22.629Z,98525.19
2023-03-08T11:19:34.886Z,98526.84
2023-03-08T11:22:54.991Z,98526.19
2023-03-08T11:26:20.704Z,98523.31
2023-03-08T11:29:35.868Z,98525.19
2023-03-08T11:33:09.790Z,98527.03
2023-03-08T11:36:33.254Z,98517.25
2023-03-08T11:39:49.939Z,98511.41
2023-03-08T11:43:13.768Z,98509.97
2023-03-08T11:46:42.491Z,98516.84
2023-03-08T11:49:43.960Z,98515.38
2023-03-08T11:52:51.313Z,98513.31
2023-03-08T11:56:01.937Z,98510.16
2023-03-08T11:59:10.889Z,98510.56
2023-03-08T12:02:20.690Z,98511.00
2023-03-08T12:05:36.184Z,98500.34
2023-03-08T12:08:48.008Z,98499.09
2023-03-08T12:11:58.549Z,98500.94
2023-03-08T12:15:24.617Z,98501.38
2023-03-08T12:18:31.999Z,98498.03
2023-03-08T12:21:41.668Z,98496.38
2023-03-08T12:24:45.911Z,98506.78
2023-03-08T12:27:59.854Z,98503.22
2023-03-08T12:31:35.500Z,98493.63
2023-03-08T12:34:40.205Z,98495.91
2023-03-08T12:37:41.806Z,98501.53
2023-03-08T12:40:49.271Z,98492.97
2023-03-08T12:44:23.316Z,98491.09
2023-03-08T12:47:25.186Z,98484.22
2023-03-08T12:50:27.159Z,98476.09
2023-03-08T12:53:46.051Z,98467.97
2023-03-08T12:56:54.204Z,98469.00
2023-03-08T12:59:59.554Z,98466.50
2023-03-08T13:03:03.282Z,98467.72
2023-03-08T13:06:22.869Z,98473.16
2023-03-08T13:09:32.917Z,98468.78
2023-03-08T13:12:41.940Z,98469.63
2023-03-08T13:15:43.527Z,98470.03
2023-03-08T13:18:48.554Z,98468.97
2023-03-08T13:22:16.902Z,98458.97
2023-03-08T13:25:51.710Z,98451.91
2023-03-08T13:28:53.590Z,98449.16
2023-03-08T13:31:56.127Z,98441.25
2023-03-08T13:35:03.057Z,98446.44
2023-03-08T13:38:04.556Z,98454.56
2023-03-08T13:41:06.058Z,98454.19
2023-03-08T13:44:13.308Z,98456.47
2023-03-08T13:47:34.887Z,98461.50
2023-03-08T13:50:41.758Z,98455.03
2023-03-08T13:53:43.613Z,98453.78
2023-03-08T13:56:45.221Z,98447.97
2023-03-08T13:59:52.245Z,98444.63
2023-03-08T14:02:53.938Z,98431.09
2023-03-08T14:05:55.541Z,98437.78
2023-03-08T14:09:00.474Z,98429.22
2023-03-08T14:12:07.190Z,98426.97
2023-03-08T14:15:18.502Z,98424.88
2023-03-08T14:18:36.673Z,98428.44
2023-03-08T14:21:38.635Z,98428.22
2023-03-08T14:24:42.212Z,98429.03
2023-03-08T14:27:45.237Z,98430.50
2023-03-08T14:30:48.812Z,98437.38
2023-03-08T14:34:02.482Z,98436.38
2023-03-08T14:37:26.018Z,98437.19
2023-03-08T14:40:36.708Z,98424.47
2023-03-08T14:43:38.313Z,98412.16
2023-03-08T14:46:39.875Z,98396.53
2023-03-08T14:49:41.386Z,98393.63
2023-03-08T14:52:49.269Z,98393.41
2023-03-08T14:55:50.710Z,98385.50
2023-03-08T14:58:53.745Z,98381.56
2023-03-08T15:01:55.449Z,98379.44
2023-03-08T15:04:57.019Z,98371.94
2023-03-08T15:08:00.364Z,98370.06
2023-03-08T15:11:01.885Z,98362.78
2023-03-08T15:14:03.436Z,98354.66
2023-03-08T15:17:04.960Z,98361.53
2023-03-08T15:20:06.872Z,98361.72
2023-03-08T15:23:08.820Z,98364.63
2023-03-08T15:26:17.410Z,98365.50
2023-03-08T15:29:29.568Z,98354.03
2023-03-08T15:32:31.078Z,98348.59
2023-03-08T15:35:32.801Z,98350.91
2023-03-08T15:38:34.421Z,98350.06
2023-03-08T15:41:35.900Z,98356.50
2023-03-08T15:44:37.405Z,98349.44
2023-03-08T15:47:39.088Z,98350.06
2023-03-08T15:50:41.246Z,98350.91
2023-03-08T15:53:42.750Z,98348.00
2023-03-08T15:56:44.240Z,98345.88
2023-03-08T15:59:45.955Z,98350.03
2023-03-08T16:02:47.835Z,98356.09
2023-03-08T16:05:49.341Z,98354.84
2023-03-08T16:08:50.925Z,98356.94
2023-03-08T16:11:52.370Z,98360.47
2023-03-08T16:15:00.106Z,98370.28
2023-03-08T16:18:01.631Z,98361.31
2023-03-08T16:21:08.785Z,98365.69
2023-03-08T16:24:11.072Z,98371.31
2023-03-08T16:27:12.607Z,98380.50
2023-03-08T16:30:14.350Z,98375.28
2023-03-08T16:33:17.963Z,98377.38
2023-03-08T16:36:19.734Z,98370.47
2023-03-08T16:39:21.627Z,98365.91
2023-03-08T16:42:23.188Z,98368.81
2023-03-08T16:45:24.927Z,98374.44
2023-03-08T16:48:27.836Z,98367.56
2023-03-08T16:51:30.630Z,98374.22
2023-03-08T16:54:32.193Z,98367.34
2023-03-08T16:57:33.711Z,98365.88
2023-03-08T17:00:35.165Z,98360.47
2023-03-08T17:03:38.463Z,98360.88
2023-03-08T17:06:43.893Z,98366.53
2023-03-08T17:09:46.281Z,98374.88
2023-03-08T17:12:47.861Z,98379.47
2023-03-08T17:15:49.419Z,98384.03
2023-03-08T17:18:51.610Z,98378.63
2023-03-08T17:21:53.391Z,98376.13
2023-03-08T17:24:54.912Z,98379.88
2023-03-08T17:27:56.509Z,98383.41
2023-03-08T17:30:58.866Z,98379.88
2023-03-08T17:34:00.350Z,98386.94
2023-03-08T17:37:01.846Z,98379.88
2023-03-08T17:40:03.768Z,98383.41
2023-03-08T17:43:05.335Z,98378.00
2023-03-08T17:46:12.226Z,98369.63
2023-03-08T17:49:13.954Z,98375.06
2023-03-08T17:52:15.783Z,98374.03
2023-03-08T17:55:17.364Z,98376.75
2023-03-08T17:58:19.818Z,98370.50
2023-03-08T18:01:24.143Z,98367.56
2023-03-08T18:04:26.113Z,98359.66
2023-03-08T18:07:29.006Z,98356.09
2023-03-08T18:10:30.601Z,98339.00
2023-03-08T18:13:32.047Z,98343.59
2023-03-08T18:16:34.531Z,98356.09
2023-03-08T18:19:36.083Z,98356.94
2023-03-08T18:22:38.390Z,98355.25
2023-03-08T18:25:40.533Z,98354.25
2023-03-08T18:28:42.131Z,98359.84
2023-03-08T18:31:43.738Z,98365.28
2023-03-08T18:34:45.781Z,98349.84
2023-03-08T18:37:47.331Z,98348.19
2023-03-08T18:40:48.804Z,98347.13
2023-03-08T18:43:51.214Z,98358.81
2023-03-08T18:46:52.980Z,98352.56
2023-03-08T18:49:54.526Z,98349.84
2023-03-08T18:52:56.559Z,98364.22
2023-03-08T18:56:00.666Z,98359.66
2023-03-08T18:59:05.742Z,98350.47
2023-03-08T19:02:07.419Z,98358.41
2023-03-08T19:05:09.185Z,98343.81
2023-03-08T19:08:10.695Z,98335.69
2023-03-08T19:11:18.888Z,98329.00
2023-03-08T19:14:20.352Z,98327.34
2023-03-08T19:17:21.799Z,98328.19
2023-03-08T19:20:24.742Z,98334.22
2023-03-08T19:23:26.304Z,98331.53
2023-03-08T19:26:36.139Z,98327.94
2023-03-08T19:29:37.663Z,98323.59
2023-03-08T19:32:40.988Z,98323.38
2023-03-08T19:35:43.698Z,98323.38
2023-03-08T19:38:45.213Z,98316.28
2023-03-08T19:41:49.137Z,98324.22
2023-03-08T19:44:52.569Z,98323.38
2023-03-08T19:47:54.030Z,98327.13
2023-03-08T19:50:55.870Z,98331.53
2023-03-08T19:53:57.430Z,98321.72
2023-03-08T19:56:59.741Z,98322.53
2023-03-08T20:00:01.371Z,98316.28
2023-03-08T20:03:15.489Z,98324.22
2023-03-08T20:06:26.076Z,98322.13
2023-03-08T20:09:27.870Z,98317.09
2023-03-08T20:12:29.346Z,98310.88
2023-03-08T20:15:32.081Z,98316.09
2023-03-08T20:18:33.749Z,98310.66
2023-03-08T20:21:35.290Z,98319.00
2023-03-08T20:24:36.814Z,98317.09
2023-03-08T20:27:40.300Z,98319.81
2023-03-08T20:30:41.803Z,98329.00
2023-03-08T20:33:44.343Z,98333.38
2023-03-08T20:36:47.320Z,98336.31
2023-03-08T20:39:52.915Z,98337.97
2023-03-08T20:42:57.808Z,98341.72
2023-03-08T20:46:05.721Z,98327.34
2023-03-08T20:49:07.331Z,98327.53
2023-03-08T20:52:09.671Z,98336.31
2023-03-08T20:55:11.339Z,98330.25
2023-03-08T20:58:12.800Z,98342.75
2023-03-08T21:01:20.769Z,98325.47
2023-03-08T21:04:23.345Z,98308.38
2023-03-08T21:07:24.820Z,98307.53
2023-03-08T21:10:26.364Z,98313.56
2023-03-08T21:13:27.863Z,98297.31
2023-03-08T21:16:30.477Z,98300.84
2023-03-08T21:19:32.034Z,98291.06
2023-03-08T21:22:33.553Z,98292.53
2023-03-08T21:25:35.741Z,98294.19
2023-03-08T21:28:37.225Z,98298.78
2023-03-08T21:31:44.717Z,98290.44
2023-03-08T21:34:46.189Z,98276.06
2023-03-08T21:37:47.723Z,98278.53
2023-03-08T21:40:49.193Z,98274.81
2023-03-08T21:43:51.091Z,98260.19
2023-03-08T21:46:53.281Z,98242.88
2023-03-08T21:49:54.874Z,98252.69
2023-03-08T21:52:56.340Z,98252.69
2023-03-08T21:55:57.884Z,98241.63
2023-03-08T21:58:59.331Z,98241.44
2023-03-08T22:02:00.878Z,98251.44
2023-03-08T22:05:03.960Z,98255.81
2023-03-08T22:08:05.445Z,98244.13
2023-03-08T22:11:06.990Z,98238.72
2023-03-08T22:14:08.512Z,98237.88
2023-03-08T22:17:10.003Z,98232.91
2023-03-08T22:20:12.266Z,98229.34
2023-03-08T22:23:13.828Z,98222.47
2023-03-08T22:26:15.375Z,98226.44
2023-03-08T22:29:16.844Z,98212.47
2023-03-08T22:32:18.714Z,98225.19
2023-03-08T22:35:21.408Z,98212.09
2023-03-08T22:38:22.930Z,98199.78
2023-03-08T22:41:26.941Z,98202.50
2023-03-08T22:44:28.449Z,98194.38
2023-03-08T22:47:30.029Z,98194.56
2023-03-08T22:50:31.504Z,98185.81
2023-03-08T22:53:33.050Z,98193.13
2023-03-08T22:56:35.127Z,98200.19
2023-03-08T22:59:36.754Z,98205.84
2023-03-08T23:02:38.208Z,98201.25
2023-03-08T23:05:39.739Z,98201.44
2023-03-08T23:08:41.336Z,98194.38
2023-03-08T23:11:43.185Z,98202.69
2023-03-08T23:14:45.408Z,98194.78
2023-03-08T23:17:47.012Z,98205.41
2023-03-08T23:20:48.532Z,98200.41
2023-03-08T23:23:50.328Z,98196.69
2023-03-08T23:26:54.081Z,98196.69
2023-03-08T23:29:55.555Z,98188.75
2023-03-08T23:32:57.020Z,98183.34
2023-03-08T23:35:58.622Z,98177.91
2023-03-08T23:39:02.517Z,98179.56
2023-03-08T23:42:05.830Z,98184.16
2023-03-08T23:45:08.030Z,98188.75
2023-03-08T23:48:09.979Z,98183.34
2023-03-08T23:51:14.436Z,98184.16
2023-03-08T23:54:15.906Z,98195.81
2023-03-08T23:57:17.422Z,98194.16
